Monte Santo de Minas, Brazil
Current Conditions -  °F | °C
As of 9:00 AM on Friday 24 Oct 2014 (Local Time) from SBRP Reporting Station
Clear Clear  
Wind Chill: 77°   Ceiling: Unl
Heat Index: 79°   Visibility: 6mi
Dew Point: 63°   Wind: 5mph
Humidity: 61%   Direction: 290°WNW
Pressure: 30.03"   Gusts: NA
Location:  21.19°S, 46.98°W
Report Text: SBRP 241100Z 29004KT CAVOK 25/17 Q1017
Loading
Personal Weather Stations






























Interactive Weather Map
Tropical Storm Tracking
New forecast layout! Learn more

10-Day Weather Forecast

Advertisements
Track Severe Weather on mobile